ベルリン/テーゲル の空港の天気 - METARとTAF

ベルリン・テーゲル国際空港 ( EDDT / TXL ) - ドイツ ベルリン
飛行場実況気象(Metar)
観測時間04/21 18:50 CEST (04/21 16:50 UTC)
風向・風速東 3m/s
視程10km以上
天気現象
なし
気温20℃
湿度26%
気圧1020hPa
METAREDDT 211650Z 08005KT 010V130 CAVOK 20/M00 Q1020 NOSIG
過去の天気等 Google飛行場航空写真 Wunderground天気予報

過去48時間のMETAR

飛行場予報(TAF)
発表時間: 4/21 13:00 CEST (4/21 11:00 UTC)
予報対象時間: 21日14時 CEST ~ 22日14時 CEST
風向・風速東北東 3m/s
視程10km以上
なし
22日10時 CEST ~ 22日12時 CEST に徐々に
風向・風速東 6m/s
TAF EDDT 211100Z 2112/2212 06006KT CAVOK
BECMG 2208/2210 10012KT